sensor_id;sensor_type;location;lat;lon;timestamp;temperature;humidity
19781;DHT22;10050;55.492;13.506;2022-10-23T00:00:27;13.50;99.90
19781;DHT22;10050;55.492;13.506;2022-10-23T00:02:53;13.50;99.90
19781;DHT22;10050;55.492;13.506;2022-10-23T00:05:20;13.50;99.90
19781;DHT22;10050;55.492;13.506;2022-10-23T00:07:51;13.50;99.90
19781;DHT22;10050;55.492;13.506;2022-10-23T00:10:17;13.50;99.90
19781;DHT22;10050;55.492;13.506;2022-10-23T00:12:43;13.50;99.90
19781;DHT22;10050;55.492;13.506;2022-10-23T00:15:09;13.50;99.90
19781;DHT22;10050;55.492;13.506;2022-10-23T00:17:35;13.50;99.90
19781;DHT22;10050;55.492;13.506;2022-10-23T00:20:01;13.50;99.90
19781;DHT22;10050;55.492;13.506;2022-10-23T00:22:27;13.50;99.90
19781;DHT22;10050;55.492;13.506;2022-10-23T00:24:52;13.50;99.90
19781;DHT22;10050;55.492;13.506;2022-10-23T00:27:18;13.60;99.90
19781;DHT22;10050;55.492;13.506;2022-10-23T00:29:44;13.50;99.90
19781;DHT22;10050;55.492;13.506;2022-10-23T00:32:10;13.50;99.90
19781;DHT22;10050;55.492;13.506;2022-10-23T00:34:35;13.50;99.90
19781;DHT22;10050;55.492;13.506;2022-10-23T00:37:01;13.50;99.90
19781;DHT22;10050;55.492;13.506;2022-10-23T00:39:27;13.60;99.90
19781;DHT22;10050;55.492;13.506;2022-10-23T00:41:52;13.60;99.90
19781;DHT22;10050;55.492;13.506;2022-10-23T00:46:47;13.60;99.90
19781;DHT22;10050;55.492;13.506;2022-10-23T00:49:14;13.60;99.90
19781;DHT22;10050;55.492;13.506;2022-10-23T00:51:43;13.60;99.90
19781;DHT22;10050;55.492;13.506;2022-10-23T00:54:11;13.60;99.90
19781;DHT22;10050;55.492;13.506;2022-10-23T00:56:39;13.60;99.90
19781;DHT22;10050;55.492;13.506;2022-10-23T00:59:06;13.60;99.90
19781;DHT22;10050;55.492;13.506;2022-10-23T01:01:32;13.60;99.90
19781;DHT22;10050;55.492;13.506;2022-10-23T01:03:58;13.60;99.90
19781;DHT22;10050;55.492;13.506;2022-10-23T01:06:37;13.60;99.90
19781;DHT22;10050;55.492;13.506;2022-10-23T01:14:32;13.60;99.90
19781;DHT22;10050;55.492;13.506;2022-10-23T01:17:17;13.60;99.90
19781;DHT22;10050;55.492;13.506;2022-10-23T01:22:53;13.70;99.90
19781;DHT22;10050;55.492;13.506;2022-10-23T01:28:35;13.60;99.90
19781;DHT22;10050;55.492;13.506;2022-10-23T01:31:07;13.60;99.90
19781;DHT22;10050;55.492;13.506;2022-10-23T01:33:43;13.60;99.90
19781;DHT22;10050;55.492;13.506;2022-10-23T01:36:13;13.60;99.90
19781;DHT22;10050;55.492;13.506;2022-10-23T01:38:47;13.60;99.90
19781;DHT22;10050;55.492;13.506;2022-10-23T01:41:23;13.60;99.90
19781;DHT22;10050;55.492;13.506;2022-10-23T01:46:30;13.60;99.90
19781;DHT22;10050;55.492;13.506;2022-10-23T01:48:58;13.60;99.90
19781;DHT22;10050;55.492;13.506;2022-10-23T01:51:26;13.60;99.90
19781;DHT22;10050;55.492;13.506;2022-10-23T01:53:57;13.60;99.90
19781;DHT22;10050;55.492;13.506;2022-10-23T01:56:27;13.60;99.90
19781;DHT22;10050;55.492;13.506;2022-10-23T01:58:56;13.60;99.90
19781;DHT22;10050;55.492;13.506;2022-10-23T02:01:25;13.60;99.90
19781;DHT22;10050;55.492;13.506;2022-10-23T02:03:52;13.60;99.90
19781;DHT22;10050;55.492;13.506;2022-10-23T02:06:18;13.60;99.90
19781;DHT22;10050;55.492;13.506;2022-10-23T02:08:44;13.60;99.90
19781;DHT22;10050;55.492;13.506;2022-10-23T02:11:14;13.60;99.90
19781;DHT22;10050;55.492;13.506;2022-10-23T02:16:25;13.60;99.90
19781;DHT22;10050;55.492;13.506;2022-10-23T02:19:05;13.60;99.90
19781;DHT22;10050;55.492;13.506;2022-10-23T02:21:39;13.60;99.90
19781;DHT22;10050;55.492;13.506;2022-10-23T02:24:09;13.60;99.90
19781;DHT22;10050;55.492;13.506;2022-10-23T02:26:39;13.50;99.90
19781;DHT22;10050;55.492;13.506;2022-10-23T02:29:35;13.60;99.90
19781;DHT22;10050;55.492;13.506;2022-10-23T02:32:04;13.60;99.90
19781;DHT22;10050;55.492;13.506;2022-10-23T02:34:31;13.60;99.90
19781;DHT22;10050;55.492;13.506;2022-10-23T02:36:57;13.60;99.90
19781;DHT22;10050;55.492;13.506;2022-10-23T02:39:25;13.60;99.90
19781;DHT22;10050;55.492;13.506;2022-10-23T02:42:02;13.60;99.90
19781;DHT22;10050;55.492;13.506;2022-10-23T02:50:21;13.60;99.90
19781;DHT22;10050;55.492;13.506;2022-10-23T03:01:08;13.50;99.90
19781;DHT22;10050;55.492;13.506;2022-10-23T03:03:39;13.50;99.90
19781;DHT22;10050;55.492;13.506;2022-10-23T03:06:06;13.60;99.90
19781;DHT22;10050;55.492;13.506;2022-10-23T03:08:52;13.60;99.90
19781;DHT22;10050;55.492;13.506;2022-10-23T03:11:18;13.60;99.90
19781;DHT22;10050;55.492;13.506;2022-10-23T03:13:44;13.60;99.90
19781;DHT22;10050;55.492;13.506;2022-10-23T03:16:09;13.60;99.90
19781;DHT22;10050;55.492;13.506;2022-10-23T03:18:35;13.60;99.90
19781;DHT22;10050;55.492;13.506;2022-10-23T03:21:01;13.60;99.90
19781;DHT22;10050;55.492;13.506;2022-10-23T03:23:27;13.60;99.90
19781;DHT22;10050;55.492;13.506;2022-10-23T03:25:53;13.60;99.90
19781;DHT22;10050;55.492;13.506;2022-10-23T03:28:20;13.50;99.90
19781;DHT22;10050;55.492;13.506;2022-10-23T03:30:46;13.50;99.90
19781;DHT22;10050;55.492;13.506;2022-10-23T03:33:11;13.50;99.90
19781;DHT22;10050;55.492;13.506;2022-10-23T03:35:37;13.50;99.90
19781;DHT22;10050;55.492;13.506;2022-10-23T03:38:02;13.50;99.90
19781;DHT22;10050;55.492;13.506;2022-10-23T03:40:28;13.50;99.90
19781;DHT22;10050;55.492;13.506;2022-10-23T03:42:54;13.50;99.90
19781;DHT22;10050;55.492;13.506;2022-10-23T03:45:19;13.50;99.90
19781;DHT22;10050;55.492;13.506;2022-10-23T03:47:45;13.50;99.90
19781;DHT22;10050;55.492;13.506;2022-10-23T03:50:11;13.50;99.90
19781;DHT22;10050;55.492;13.506;2022-10-23T03:52:38;13.50;99.90
19781;DHT22;10050;55.492;13.506;2022-10-23T03:55:05;13.50;99.90
19781;DHT22;10050;55.492;13.506;2022-10-23T03:57:31;13.60;99.90
19781;DHT22;10050;55.492;13.506;2022-10-23T03:59:57;13.60;99.90
19781;DHT22;10050;55.492;13.506;2022-10-23T04:02:22;13.60;99.90
19781;DHT22;10050;55.492;13.506;2022-10-23T04:04:48;13.60;99.90
19781;DHT22;10050;55.492;13.506;2022-10-23T04:07:14;13.60;99.90
19781;DHT22;10050;55.492;13.506;2022-10-23T04:09:40;13.50;99.90
19781;DHT22;10050;55.492;13.506;2022-10-23T04:12:05;13.60;99.90
19781;DHT22;10050;55.492;13.506;2022-10-23T04:14:31;13.60;99.90
19781;DHT22;10050;55.492;13.506;2022-10-23T04:16:57;13.60;99.90
19781;DHT22;10050;55.492;13.506;2022-10-23T04:19:22;13.60;99.90
19781;DHT22;10050;55.492;13.506;2022-10-23T04:21:48;13.60;99.90
19781;DHT22;10050;55.492;13.506;2022-10-23T04:24:14;13.60;99.90
19781;DHT22;10050;55.492;13.506;2022-10-23T04:26:39;13.60;99.90
19781;DHT22;10050;55.492;13.506;2022-10-23T04:29:05;13.60;99.90
19781;DHT22;10050;55.492;13.506;2022-10-23T04:31:31;13.60;99.90
19781;DHT22;10050;55.492;13.506;2022-10-23T04:33:56;13.60;99.90
19781;DHT22;10050;55.492;13.506;2022-10-23T04:36:22;13.50;99.90
19781;DHT22;10050;55.492;13.506;2022-10-23T04:38:48;13.60;99.90
19781;DHT22;10050;55.492;13.506;2022-10-23T04:41:13;13.60;99.90
19781;DHT22;10050;55.492;13.506;2022-10-23T04:43:39;13.60;99.90
19781;DHT22;10050;55.492;13.506;2022-10-23T04:46:05;13.60;99.90
19781;DHT22;10050;55.492;13.506;2022-10-23T04:48:31;13.60;99.90
19781;DHT22;10050;55.492;13.506;2022-10-23T04:51:01;13.60;99.90
19781;DHT22;10050;55.492;13.506;2022-10-23T04:53:27;13.60;99.90
19781;DHT22;10050;55.492;13.506;2022-10-23T04:55:54;13.60;99.90
19781;DHT22;10050;55.492;13.506;2022-10-23T04:58:21;13.60;99.90
19781;DHT22;10050;55.492;13.506;2022-10-23T05:00:47;13.60;99.90
19781;DHT22;10050;55.492;13.506;2022-10-23T05:03:13;13.60;99.90
19781;DHT22;10050;55.492;13.506;2022-10-23T05:05:39;13.50;99.90
19781;DHT22;10050;55.492;13.506;2022-10-23T05:08:05;13.50;99.90
19781;DHT22;10050;55.492;13.506;2022-10-23T05:10:30;13.50;99.90
19781;DHT22;10050;55.492;13.506;2022-10-23T05:12:56;13.50;99.90
19781;DHT22;10050;55.492;13.506;2022-10-23T05:15:21;13.50;99.90
19781;DHT22;10050;55.492;13.506;2022-10-23T05:17:53;13.50;99.90
19781;DHT22;10050;55.492;13.506;2022-10-23T05:20:23;13.50;99.90
19781;DHT22;10050;55.492;13.506;2022-10-23T05:22:51;13.50;99.90
19781;DHT22;10050;55.492;13.506;2022-10-23T05:25:19;13.50;99.90
19781;DHT22;10050;55.492;13.506;2022-10-23T05:27:44;13.50;99.90
19781;DHT22;10050;55.492;13.506;2022-10-23T05:30:11;13.50;99.90
19781;DHT22;10050;55.492;13.506;2022-10-23T05:32:37;13.50;99.90
19781;DHT22;10050;55.492;13.506;2022-10-23T05:35:07;13.50;99.90
19781;DHT22;10050;55.492;13.506;2022-10-23T05:37:36;13.50;99.90
19781;DHT22;10050;55.492;13.506;2022-10-23T05:40:03;13.50;99.90
19781;DHT22;10050;55.492;13.506;2022-10-23T05:42:28;13.50;99.90
19781;DHT22;10050;55.492;13.506;2022-10-23T05:44:54;13.50;99.90
19781;DHT22;10050;55.492;13.506;2022-10-23T05:47:19;13.50;99.90
19781;DHT22;10050;55.492;13.506;2022-10-23T05:49:45;13.40;99.90
19781;DHT22;10050;55.492;13.506;2022-10-23T05:52:11;13.40;99.90
19781;DHT22;10050;55.492;13.506;2022-10-23T05:54:37;13.40;99.90
19781;DHT22;10050;55.492;13.506;2022-10-23T05:57:03;13.40;99.90
19781;DHT22;10050;55.492;13.506;2022-10-23T05:59:28;13.40;99.90
19781;DHT22;10050;55.492;13.506;2022-10-23T06:01:54;13.40;99.90
19781;DHT22;10050;55.492;13.506;2022-10-23T06:04:33;13.40;99.90
19781;DHT22;10050;55.492;13.506;2022-10-23T06:07:00;13.40;99.90
19781;DHT22;10050;55.492;13.506;2022-10-23T06:09:25;13.40;99.90
19781;DHT22;10050;55.492;13.506;2022-10-23T06:11:51;13.40;99.90
19781;DHT22;10050;55.492;13.506;2022-10-23T06:14:16;13.40;99.90
19781;DHT22;10050;55.492;13.506;2022-10-23T06:16:42;13.30;99.90
19781;DHT22;10050;55.492;13.506;2022-10-23T06:19:11;13.30;99.90
19781;DHT22;10050;55.492;13.506;2022-10-23T06:21:38;13.30;99.90
19781;DHT22;10050;55.492;13.506;2022-10-23T06:24:05;13.30;99.90
19781;DHT22;10050;55.492;13.506;2022-10-23T06:26:30;13.30;99.90
19781;DHT22;10050;55.492;13.506;2022-10-23T06:28:56;13.30;99.90
19781;DHT22;10050;55.492;13.506;2022-10-23T06:31:22;13.30;99.90
19781;DHT22;10050;55.492;13.506;2022-10-23T06:33:51;13.30;99.90
19781;DHT22;10050;55.492;13.506;2022-10-23T06:36:17;13.40;99.90
19781;DHT22;10050;55.492;13.506;2022-10-23T06:38:43;13.40;99.90
19781;DHT22;10050;55.492;13.506;2022-10-23T06:41:14;13.30;99.90
19781;DHT22;10050;55.492;13.506;2022-10-23T06:43:40;13.40;99.90
19781;DHT22;10050;55.492;13.506;2022-10-23T06:46:06;13.40;99.90
19781;DHT22;10050;55.492;13.506;2022-10-23T06:48:32;13.40;99.90
19781;DHT22;10050;55.492;13.506;2022-10-23T06:50:58;13.50;99.90
19781;DHT22;10050;55.492;13.506;2022-10-23T06:53:24;13.50;99.90
19781;DHT22;10050;55.492;13.506;2022-10-23T06:55:50;13.40;99.90
19781;DHT22;10050;55.492;13.506;2022-10-23T06:58:17;13.50;99.90
19781;DHT22;10050;55.492;13.506;2022-10-23T07:00:43;13.50;99.90
19781;DHT22;10050;55.492;13.506;2022-10-23T07:03:09;13.50;99.90
19781;DHT22;10050;55.492;13.506;2022-10-23T07:05:35;13.50;99.90
19781;DHT22;10050;55.492;13.506;2022-10-23T07:08:00;13.50;99.90
19781;DHT22;10050;55.492;13.506;2022-10-23T07:10:28;13.50;99.90
19781;DHT22;10050;55.492;13.506;2022-10-23T07:12:54;13.50;99.90
19781;DHT22;10050;55.492;13.506;2022-10-23T07:15:28;13.50;99.90
19781;DHT22;10050;55.492;13.506;2022-10-23T07:17:54;13.50;99.90
19781;DHT22;10050;55.492;13.506;2022-10-23T07:20:20;13.50;99.90
19781;DHT22;10050;55.492;13.506;2022-10-23T07:22:53;13.60;99.90
19781;DHT22;10050;55.492;13.506;2022-10-23T07:25:20;13.70;99.90
19781;DHT22;10050;55.492;13.506;2022-10-23T07:27:46;13.70;99.90
19781;DHT22;10050;55.492;13.506;2022-10-23T07:30:12;13.80;99.90
19781;DHT22;10050;55.492;13.506;2022-10-23T07:32:38;14.00;99.90
19781;DHT22;10050;55.492;13.506;2022-10-23T07:35:05;14.00;99.90
19781;DHT22;10050;55.492;13.506;2022-10-23T07:37:31;14.00;99.90
19781;DHT22;10050;55.492;13.506;2022-10-23T07:39:57;14.10;99.90
19781;DHT22;10050;55.492;13.506;2022-10-23T07:42:22;14.10;99.90
19781;DHT22;10050;55.492;13.506;2022-10-23T07:44:48;14.10;99.90
19781;DHT22;10050;55.492;13.506;2022-10-23T07:47:13;14.00;99.90
19781;DHT22;10050;55.492;13.506;2022-10-23T07:49:39;13.90;99.90
19781;DHT22;10050;55.492;13.506;2022-10-23T07:52:05;13.90;99.90
19781;DHT22;10050;55.492;13.506;2022-10-23T07:54:31;14.00;99.90
19781;DHT22;10050;55.492;13.506;2022-10-23T07:56:58;14.10;99.90
19781;DHT22;10050;55.492;13.506;2022-10-23T07:59:24;14.20;99.90
19781;DHT22;10050;55.492;13.506;2022-10-23T08:01:49;14.60;99.90
19781;DHT22;10050;55.492;13.506;2022-10-23T08:04:15;14.60;99.90
19781;DHT22;10050;55.492;13.506;2022-10-23T08:06:41;14.80;99.90
19781;DHT22;10050;55.492;13.506;2022-10-23T08:09:07;15.10;99.90
19781;DHT22;10050;55.492;13.506;2022-10-23T08:11:33;15.90;99.90
19781;DHT22;10050;55.492;13.506;2022-10-23T08:14:03;17.20;99.90
19781;DHT22;10050;55.492;13.506;2022-10-23T08:16:30;18.60;99.90
19781;DHT22;10050;55.492;13.506;2022-10-23T08:18:56;20.30;99.90
19781;DHT22;10050;55.492;13.506;2022-10-23T08:21:22;20.40;99.90
19781;DHT22;10050;55.492;13.506;2022-10-23T08:23:48;20.40;99.90
19781;DHT22;10050;55.492;13.506;2022-10-23T08:26:14;21.30;99.90
19781;DHT22;10050;55.492;13.506;2022-10-23T08:28:40;21.50;99.90
19781;DHT22;10050;55.492;13.506;2022-10-23T08:31:11;21.40;99.90
19781;DHT22;10050;55.492;13.506;2022-10-23T08:33:37;20.80;99.90
19781;DHT22;10050;55.492;13.506;2022-10-23T08:36:04;20.10;99.90
19781;DHT22;10050;55.492;13.506;2022-10-23T08:38:30;19.60;99.90
19781;DHT22;10050;55.492;13.506;2022-10-23T08:40:55;19.60;99.90
19781;DHT22;10050;55.492;13.506;2022-10-23T08:46:18;21.80;99.90
19781;DHT22;10050;55.492;13.506;2022-10-23T08:48:50;22.50;99.90
19781;DHT22;10050;55.492;13.506;2022-10-23T08:51:22;23.30;99.90
19781;DHT22;10050;55.492;13.506;2022-10-23T08:54:01;24.00;99.90
19781;DHT22;10050;55.492;13.506;2022-10-23T08:56:32;24.30;99.90
19781;DHT22;10050;55.492;13.506;2022-10-23T09:01:42;24.10;99.90
19781;DHT22;10050;55.492;13.506;2022-10-23T09:04:12;24.30;99.90
19781;DHT22;10050;55.492;13.506;2022-10-23T09:09:59;23.30;99.90
19781;DHT22;10050;55.492;13.506;2022-10-23T09:12:28;22.40;99.90
19781;DHT22;10050;55.492;13.506;2022-10-23T09:17:42;21.30;99.90
19781;DHT22;10050;55.492;13.506;2022-10-23T09:20:24;20.70;99.90
19781;DHT22;10050;55.492;13.506;2022-10-23T09:22:57;20.20;99.90
19781;DHT22;10050;55.492;13.506;2022-10-23T09:25:30;19.60;99.90
19781;DHT22;10050;55.492;13.506;2022-10-23T09:27:58;18.60;99.90
19781;DHT22;10050;55.492;13.506;2022-10-23T09:30:42;18.70;99.90
19781;DHT22;10050;55.492;13.506;2022-10-23T09:33:23;19.70;99.90
19781;DHT22;10050;55.492;13.506;2022-10-23T09:36:00;20.70;99.90
19781;DHT22;10050;55.492;13.506;2022-10-23T09:38:38;21.50;99.90
19781;DHT22;10050;55.492;13.506;2022-10-23T09:41:16;21.90;99.90
19781;DHT22;10050;55.492;13.506;2022-10-23T09:43:42;22.10;99.90
19781;DHT22;10050;55.492;13.506;2022-10-23T09:46:08;22.30;99.90
19781;DHT22;10050;55.492;13.506;2022-10-23T09:48:35;22.70;99.90
19781;DHT22;10050;55.492;13.506;2022-10-23T09:51:11;22.60;99.90
19781;DHT22;10050;55.492;13.506;2022-10-23T09:53:52;22.30;99.90
19781;DHT22;10050;55.492;13.506;2022-10-23T09:56:30;22.00;99.90
19781;DHT22;10050;55.492;13.506;2022-10-23T09:58:58;21.50;99.90
19781;DHT22;10050;55.492;13.506;2022-10-23T10:01:27;20.90;99.90
19781;DHT22;10050;55.492;13.506;2022-10-23T10:03:53;20.50;99.90
19781;DHT22;10050;55.492;13.506;2022-10-23T10:06:28;20.80;99.90
19781;DHT22;10050;55.492;13.506;2022-10-23T10:09:04;21.50;99.90
19781;DHT22;10050;55.492;13.506;2022-10-23T10:11:34;22.30;99.90
19781;DHT22;10050;55.492;13.506;2022-10-23T10:14:34;22.30;99.90
19781;DHT22;10050;55.492;13.506;2022-10-23T10:36:52;19.70;99.90
19781;DHT22;10050;55.492;13.506;2022-10-23T10:39:31;20.00;99.90
19781;DHT22;10050;55.492;13.506;2022-10-23T10:45:47;20.50;99.90
19781;DHT22;10050;55.492;13.506;2022-10-23T10:48:38;20.50;99.90
19781;DHT22;10050;55.492;13.506;2022-10-23T10:52:00;20.10;99.90
19781;DHT22;10050;55.492;13.506;2022-10-23T10:54:24;19.90;99.90
19781;DHT22;10050;55.492;13.506;2022-10-23T10:56:56;19.30;99.90
19781;DHT22;10050;55.492;13.506;2022-10-23T10:59:27;19.40;99.90
19781;DHT22;10050;55.492;13.506;2022-10-23T11:02:10;19.10;99.90
19781;DHT22;10050;55.492;13.506;2022-10-23T11:05:15;19.40;99.90
19781;DHT22;10050;55.492;13.506;2022-10-23T11:08:08;19.40;99.90
19781;DHT22;10050;55.492;13.506;2022-10-23T11:10:41;19.40;99.90
19781;DHT22;10050;55.492;13.506;2022-10-23T11:13:28;19.30;99.90
19781;DHT22;10050;55.492;13.506;2022-10-23T11:16:00;19.10;99.90
19781;DHT22;10050;55.492;13.506;2022-10-23T11:18:28;19.10;99.90
19781;DHT22;10050;55.492;13.506;2022-10-23T11:26:25;18.00;99.90
19781;DHT22;10050;55.492;13.506;2022-10-23T11:37:18;17.80;99.90
19781;DHT22;10050;55.492;13.506;2022-10-23T11:40:20;17.80;99.90
19781;DHT22;10050;55.492;13.506;2022-10-23T11:42:48;17.70;99.90
19781;DHT22;10050;55.492;13.506;2022-10-23T11:45:36;17.40;99.90
19781;DHT22;10050;55.492;13.506;2022-10-23T11:58:43;16.60;99.90
19781;DHT22;10050;55.492;13.506;2022-10-23T12:01:40;16.50;99.90
19781;DHT22;10050;55.492;13.506;2022-10-23T12:06:59;16.50;99.90
19781;DHT22;10050;55.492;13.506;2022-10-23T12:09:50;16.60;99.90
19781;DHT22;10050;55.492;13.506;2022-10-23T12:12:35;16.70;99.90
19781;DHT22;10050;55.492;13.506;2022-10-23T12:15:08;16.80;99.90
19781;DHT22;10050;55.492;13.506;2022-10-23T12:17:36;16.70;99.90
19781;DHT22;10050;55.492;13.506;2022-10-23T12:25:14;16.50;99.90
19781;DHT22;10050;55.492;13.506;2022-10-23T12:28:03;16.30;99.90
19781;DHT22;10050;55.492;13.506;2022-10-23T12:36:49;16.20;99.90
19781;DHT22;10050;55.492;13.506;2022-10-23T12:39:28;16.60;99.90
19781;DHT22;10050;55.492;13.506;2022-10-23T12:41:54;17.00;99.90
19781;DHT22;10050;55.492;13.506;2022-10-23T12:44:20;17.00;99.90
19781;DHT22;10050;55.492;13.506;2022-10-23T12:46:48;17.00;99.90
19781;DHT22;10050;55.492;13.506;2022-10-23T12:49:18;16.60;99.90
19781;DHT22;10050;55.492;13.506;2022-10-23T12:51:44;16.40;99.90
19781;DHT22;10050;55.492;13.506;2022-10-23T12:54:18;16.40;99.90
19781;DHT22;10050;55.492;13.506;2022-10-23T12:56:44;16.10;99.90
19781;DHT22;10050;55.492;13.506;2022-10-23T12:59:34;16.20;99.90
19781;DHT22;10050;55.492;13.506;2022-10-23T13:02:01;16.40;99.90
19781;DHT22;10050;55.492;13.506;2022-10-23T13:04:33;16.60;99.90
19781;DHT22;10050;55.492;13.506;2022-10-23T13:07:02;16.70;99.90
19781;DHT22;10050;55.492;13.506;2022-10-23T13:09:41;16.70;99.90
19781;DHT22;10050;55.492;13.506;2022-10-23T13:12:08;16.60;99.90
19781;DHT22;10050;55.492;13.506;2022-10-23T13:14:41;16.40;99.90
19781;DHT22;10050;55.492;13.506;2022-10-23T13:17:18;16.20;99.90
19781;DHT22;10050;55.492;13.506;2022-10-23T13:19:44;16.40;99.90
19781;DHT22;10050;55.492;13.506;2022-10-23T13:22:18;16.30;99.90
19781;DHT22;10050;55.492;13.506;2022-10-23T13:24:45;16.10;99.90
19781;DHT22;10050;55.492;13.506;2022-10-23T13:29:50;15.70;99.90
19781;DHT22;10050;55.492;13.506;2022-10-23T13:32:22;15.60;99.90
19781;DHT22;10050;55.492;13.506;2022-10-23T13:34:52;15.50;99.90
19781;DHT22;10050;55.492;13.506;2022-10-23T13:37:27;15.50;99.90
19781;DHT22;10050;55.492;13.506;2022-10-23T13:40:00;15.50;99.90
19781;DHT22;10050;55.492;13.506;2022-10-23T13:42:26;15.50;99.90
19781;DHT22;10050;55.492;13.506;2022-10-23T13:44:52;15.60;99.90
19781;DHT22;10050;55.492;13.506;2022-10-23T13:47:18;15.40;99.90
19781;DHT22;10050;55.492;13.506;2022-10-23T13:49:44;15.50;99.90
19781;DHT22;10050;55.492;13.506;2022-10-23T13:52:14;15.50;99.90
19781;DHT22;10050;55.492;13.506;2022-10-23T13:54:43;15.50;99.90
19781;DHT22;10050;55.492;13.506;2022-10-23T13:57:13;15.40;99.90
19781;DHT22;10050;55.492;13.506;2022-10-23T13:59:39;15.40;99.90
19781;DHT22;10050;55.492;13.506;2022-10-23T14:02:20;15.50;99.90
19781;DHT22;10050;55.492;13.506;2022-10-23T14:04:47;15.50;99.90
19781;DHT22;10050;55.492;13.506;2022-10-23T14:07:13;15.40;99.90
19781;DHT22;10050;55.492;13.506;2022-10-23T14:09:38;15.40;99.90
19781;DHT22;10050;55.492;13.506;2022-10-23T14:12:04;15.30;99.90
19781;DHT22;10050;55.492;13.506;2022-10-23T14:14:30;15.30;99.90
19781;DHT22;10050;55.492;13.506;2022-10-23T14:16:55;15.30;99.90
19781;DHT22;10050;55.492;13.506;2022-10-23T14:19:21;15.30;99.90
19781;DHT22;10050;55.492;13.506;2022-10-23T14:21:46;15.20;99.90
19781;DHT22;10050;55.492;13.506;2022-10-23T14:24:12;15.20;99.90
19781;DHT22;10050;55.492;13.506;2022-10-23T14:26:39;15.10;99.90
19781;DHT22;10050;55.492;13.506;2022-10-23T14:29:05;15.00;99.90
19781;DHT22;10050;55.492;13.506;2022-10-23T14:31:31;15.00;99.90
19781;DHT22;10050;55.492;13.506;2022-10-23T14:33:57;15.10;99.90
19781;DHT22;10050;55.492;13.506;2022-10-23T14:36:25;15.10;99.90
19781;DHT22;10050;55.492;13.506;2022-10-23T14:38:55;15.10;99.90
19781;DHT22;10050;55.492;13.506;2022-10-23T14:41:21;15.10;99.90
19781;DHT22;10050;55.492;13.506;2022-10-23T14:43:47;15.00;99.90
19781;DHT22;10050;55.492;13.506;2022-10-23T14:46:18;14.90;99.90
19781;DHT22;10050;55.492;13.506;2022-10-23T14:48:44;14.90;99.90
19781;DHT22;10050;55.492;13.506;2022-10-23T14:51:21;14.80;99.90
19781;DHT22;10050;55.492;13.506;2022-10-23T14:53:48;14.80;99.90
19781;DHT22;10050;55.492;13.506;2022-10-23T14:56:20;14.70;99.90
19781;DHT22;10050;55.492;13.506;2022-10-23T14:58:47;14.70;99.90
19781;DHT22;10050;55.492;13.506;2022-10-23T15:01:13;14.50;99.90
19781;DHT22;10050;55.492;13.506;2022-10-23T15:03:39;14.50;99.90
19781;DHT22;10050;55.492;13.506;2022-10-23T15:06:05;14.50;99.90
19781;DHT22;10050;55.492;13.506;2022-10-23T15:08:31;14.50;99.90
19781;DHT22;10050;55.492;13.506;2022-10-23T15:11:01;14.50;99.90
19781;DHT22;10050;55.492;13.506;2022-10-23T15:13:28;14.40;99.90
19781;DHT22;10050;55.492;13.506;2022-10-23T15:16:01;14.40;99.90
19781;DHT22;10050;55.492;13.506;2022-10-23T15:18:27;14.40;99.90
19781;DHT22;10050;55.492;13.506;2022-10-23T15:20:53;14.30;99.90
19781;DHT22;10050;55.492;13.506;2022-10-23T15:23:18;14.30;99.90
19781;DHT22;10050;55.492;13.506;2022-10-23T15:25:44;14.20;99.90
19781;DHT22;10050;55.492;13.506;2022-10-23T15:28:09;14.10;99.90
19781;DHT22;10050;55.492;13.506;2022-10-23T15:30:35;14.10;99.90
19781;DHT22;10050;55.492;13.506;2022-10-23T15:33:07;14.10;99.90
19781;DHT22;10050;55.492;13.506;2022-10-23T15:35:33;14.00;99.90
19781;DHT22;10050;55.492;13.506;2022-10-23T15:37:58;13.90;99.90
19781;DHT22;10050;55.492;13.506;2022-10-23T15:40:24;13.80;99.90
19781;DHT22;10050;55.492;13.506;2022-10-23T15:42:49;13.80;99.90
19781;DHT22;10050;55.492;13.506;2022-10-23T15:45:16;13.70;99.90
19781;DHT22;10050;55.492;13.506;2022-10-23T15:47:41;13.70;99.90
19781;DHT22;10050;55.492;13.506;2022-10-23T15:50:10;13.60;99.90
19781;DHT22;10050;55.492;13.506;2022-10-23T15:52:56;13.60;99.90
19781;DHT22;10050;55.492;13.506;2022-10-23T15:55:22;13.50;99.90
19781;DHT22;10050;55.492;13.506;2022-10-23T15:57:48;13.30;99.90
19781;DHT22;10050;55.492;13.506;2022-10-23T16:00:14;13.30;99.90
19781;DHT22;10050;55.492;13.506;2022-10-23T16:02:40;13.20;99.90
19781;DHT22;10050;55.492;13.506;2022-10-23T16:05:06;13.20;99.90
19781;DHT22;10050;55.492;13.506;2022-10-23T16:07:32;13.20;99.90
19781;DHT22;10050;55.492;13.506;2022-10-23T16:09:57;13.20;99.90
19781;DHT22;10050;55.492;13.506;2022-10-23T16:12:23;13.10;99.90
19781;DHT22;10050;55.492;13.506;2022-10-23T16:14:49;13.00;99.90
19781;DHT22;10050;55.492;13.506;2022-10-23T16:17:16;13.00;99.90
19781;DHT22;10050;55.492;13.506;2022-10-23T16:19:43;12.90;99.90
19781;DHT22;10050;55.492;13.506;2022-10-23T16:22:08;12.80;99.90
19781;DHT22;10050;55.492;13.506;2022-10-23T16:24:34;12.80;99.90
19781;DHT22;10050;55.492;13.506;2022-10-23T16:26:59;12.80;99.90
19781;DHT22;10050;55.492;13.506;2022-10-23T16:29:26;12.90;99.90
19781;DHT22;10050;55.492;13.506;2022-10-23T16:31:54;12.90;99.90
19781;DHT22;10050;55.492;13.506;2022-10-23T16:34:20;12.80;99.90
19781;DHT22;10050;55.492;13.506;2022-10-23T16:36:46;12.90;99.90
19781;DHT22;10050;55.492;13.506;2022-10-23T16:39:13;12.90;99.90
19781;DHT22;10050;55.492;13.506;2022-10-23T16:41:39;12.90;99.90
19781;DHT22;10050;55.492;13.506;2022-10-23T16:44:05;12.90;99.90
19781;DHT22;10050;55.492;13.506;2022-10-23T16:46:31;12.90;99.90
19781;DHT22;10050;55.492;13.506;2022-10-23T16:48:58;12.90;99.90
19781;DHT22;10050;55.492;13.506;2022-10-23T16:51:25;12.80;99.90
19781;DHT22;10050;55.492;13.506;2022-10-23T16:53:52;12.80;99.90
19781;DHT22;10050;55.492;13.506;2022-10-23T16:56:21;12.80;99.90
19781;DHT22;10050;55.492;13.506;2022-10-23T16:58:47;12.80;99.90
19781;DHT22;10050;55.492;13.506;2022-10-23T17:01:19;12.80;99.90
19781;DHT22;10050;55.492;13.506;2022-10-23T17:03:47;12.80;99.90
19781;DHT22;10050;55.492;13.506;2022-10-23T17:06:19;12.80;99.90
19781;DHT22;10050;55.492;13.506;2022-10-23T17:08:46;12.80;99.90
19781;DHT22;10050;55.492;13.506;2022-10-23T17:11:14;12.80;99.90
19781;DHT22;10050;55.492;13.506;2022-10-23T17:13:43;12.80;99.90
19781;DHT22;10050;55.492;13.506;2022-10-23T17:16:10;12.80;99.90